• Join FlightAware (Why Join?)
  • Login
  • US Flag 
06:45AM EDT


 

Airport Tracker/Info


-or-


 

Live Flight TrackerFlight Track Log ✈ N716SN ✈ 09-May-2013 ✈ KBKL - KLUK

Flight Track Log - Related Links

Times and Time Zones

All times are in EDT time to prevent confusion due to time zone crossing. See the N716SN flight status page for this flight to view local times or setup timezone preferences in your user account.

Time Position Orientation Groundspeed Altitude Reporting Facility
EDT Latitude Longitude Course Direction KTS MPH feet Rate Location/Type
12:55PM 41.5125 -81.6978 272° West 148 170 1,000  Level Cleveland Center
12:56PM 41.5142 -81.7617 272° West 243 280 2,100 780 Climbing Cleveland Center
12:57PM 41.5725 -81.7544 North 232 267 2,500 360 Climbing Cleveland Center
12:58PM 41.5817 -81.6575 83° East 250 288 3,000 720 Climbing Cleveland Center
12:59PM 41.5575 -81.5850 114° Southeast 254 292 4,000 960 Climbing Cleveland Center
01:00PM 41.5325 -81.5789 170° South 260 299 4,400 1,740 Climbing Cleveland Center
01:00PM 41.4867 -81.5811 182° South 268 308 5,800 1,980 Climbing Cleveland Center
01:01PM 41.4575 -81.5806 179° South 266 306 6,400 1,560 Climbing Cleveland Center
01:02PM 41.3903 -81.6156 201° Southwest 272 313 8,200 1,800 Climbing Cleveland Center
01:03PM 41.3314 -81.6781 219° Southwest 272 313 10,000 1,800 Climbing Cleveland Center
01:04PM 41.2642 -81.7294 210° Southwest 279 321 11,800 2,040 Climbing Cleveland Center
01:05PM 41.2031 -81.7864 215° Southwest 279 321 14,100 1,800 Climbing Cleveland Center
01:06PM 41.1381 -81.8431 213° Southwest 285 328 15,400 1,080 Climbing Cleveland Center
01:07PM 41.0664 -81.9050 213° Southwest 301 346 16,300 900 Climbing Cleveland Center
01:09PM 40.9453 -82.0078 213° Southwest 316 364 17,900 600 Climbing Indianapolis Center
01:10PM 40.8656 -82.0711 211° Southwest 328 377 18,000  Climbing Indianapolis Center
01:11PM 40.7833 -82.1308 209° Southwest 334 384 18,000  Level Indianapolis Center
01:12PM 40.6861 -82.2006 209° Southwest 337 388 18,000  Level Indianapolis Center
01:13PM 40.6125 -82.2800 219° Southwest 339 390 18,000  Level Indianapolis Center
01:14PM 40.5414 -82.3650 222° Southwest 340 391 18,000  Level Indianapolis Center
01:15PM 40.4711 -82.4492 222° Southwest 340 391 18,000  Level Indianapolis Center
01:16PM 40.4003 -82.5303 221° Southwest 336 387 18,000  Level Indianapolis Center
01:17PM 40.3292 -82.6117 221° Southwest 336 387 18,000  Level Indianapolis Center
01:18PM 40.2581 -82.6947 222° Southwest 339 390 18,000  Level Indianapolis Center
01:19PM 40.1750 -82.7908 221° Southwest 336 387 18,000  Level Indianapolis Center
01:21PM 40.0519 -82.9758 229° Southwest 338 389 18,000  Level Indianapolis Center
01:22PM 40.0011 -83.0761 237° Southwest 330 380 18,000  Level Indianapolis Center
01:23PM 39.9483 -83.1775 236° Southwest 334 384 18,000  Level Indianapolis Center
01:24PM 39.8961 -83.2783 236° Southwest 332 382 18,000 -120 Level Indianapolis Center
01:25PM 39.8436 -83.3789 236° Southwest 330 380 17,800 -540 Descending Indianapolis Center
01:26PM 39.7886 -83.4831 236° Southwest 331 381 16,900 -960 Descending Indianapolis Center
01:27PM 39.7378 -83.5819 236° Southwest 323 372 15,900 -1,020 Descending Indianapolis Center
01:28PM 39.6883 -83.6764 236° Southwest 314 361 14,900 -1,020 Descending Indianapolis Center
01:29PM 39.6386 -83.7697 235° Southwest 311 358 13,900 -1,080 Descending Indianapolis Center
01:30PM 39.5833 -83.8753 236° Southwest 302 348 12,700 -1,080 Descending Indianapolis Center
01:31PM 39.5358 -83.9631 235° Southwest 296 341 11,700 -840 Descending Indianapolis Center
01:32PM 39.4903 -84.0511 236° Southwest 292 336 11,000 -840 Descending Indianapolis Center
01:33PM 39.4375 -84.1272 228° Southwest 282 325 10,000 -1,140 Descending Indianapolis Center
01:34PM 39.3853 -84.1986 227° Southwest 273 314 8,700 -1,560 Descending Indianapolis Center
01:35PM 39.3331 -84.2683 226° Southwest 269 310 6,800 -1,920 Descending Indianapolis Center
01:36PM 39.2803 -84.3353 224° Southwest 266 306 4,800 -1,500 Descending Indianapolis Center
01:37PM 39.2136 -84.3578 195° South 249 287 3,800 -960 Descending Indianapolis Center
01:38PM 39.1500 -84.3831 197° South 226 260 2,900 -900 Descending Indianapolis Center
01:41PM 39.1033 -84.4186 226° Southwest  Level Estimated
01:48PM 39.1000 -84.4167 57° Northeast  Level FlightAware Approximate